Terminal Aerodrome Forecast
Issued by NWS Cleveland, OH

Home | Current Version | Previous Version | Text Only | Print | Product List | Glossary On
Versions: 1 2 3 4 5 6 7 8 9 10 11 12 13 14 15 16 17 18 19 20 21 22 23 24 25 26
202
FTUS41 KCLE 220338 AAC
TAFCLE
TAF AMD
KCLE 220338Z 2204/2306 18005KT 6SM BR SCT008 OVC015
      TEMPO 2204/2207 4SM -SHRA BR OVC008
     FM220700 18005KT 4SM -SHRA BR OVC008
     FM221200 18007KT 6SM BR OVC012
     FM221500 18010KT P6SM OVC035
     FM221700 18015G25KT P6SM BKN035 BKN050
     FM222300 18012KT 4SM -RA BR OVC015
     FM230500 20012KT P6SM OVC010=

USA.gov is the U.S. government's official web portal to all federal, state and local government web resources and services.